Parchman, Mississippi
Current Conditions -  °F | °C
As of 8:15 PM on Thursday 18 Dec 2014 (Local Time) from KRNV Reporting Station
Overcast Overcast  
Wind Chill: 45°   Ceiling: 3400
Heat Index: 47°   Visibility: 10mi
Dew Point: 45°   Wind: 5mph
Humidity: 91%   Direction: 20°NNE
Pressure: 30.21"   Gusts: NA
Location:  33.92°N, 90.5°W
Report Text: KRNV 190215Z AUTO 02004KT 10SM OVC034 08/07 A3021 RMK AO2 T00840070
Loading
Personal Weather Stations






























Interactive Weather Map New forecast layout! Learn more

10-Day Weather Forecast

Advertisements
Track Severe Weather on mobile